createdAt,value
2022-08-19T00:00:00.083Z,23.16
2022-08-19T00:01:01.811Z,23.16
2022-08-19T00:02:07.264Z,23.16
2022-08-19T00:03:09.061Z,23.14
2022-08-19T00:04:16.006Z,23.14
2022-08-19T00:05:18.757Z,23.15
2022-08-19T00:06:21.295Z,23.14
2022-08-19T00:07:22.934Z,23.12
2022-08-19T00:08:25.683Z,23.12
2022-08-19T00:09:28.543Z,23.11
2022-08-19T00:10:31.296Z,23.11
2022-08-19T00:11:33.072Z,23.10
2022-08-19T00:12:37.292Z,23.09
2022-08-19T00:13:50.849Z,23.08
2022-08-19T00:14:54.919Z,23.07
2022-08-19T00:15:56.873Z,23.08
2022-08-19T00:16:59.612Z,23.07
2022-08-19T00:18:01.204Z,23.06
2022-08-19T00:19:03.885Z,23.04
2022-08-19T00:20:08.669Z,23.02
2022-08-19T00:21:11.264Z,23.03
2022-08-19T00:22:12.881Z,23.00
2022-08-19T00:23:15.980Z,22.99
2022-08-19T00:24:17.652Z,22.97
2022-08-19T00:25:30.240Z,22.96
2022-08-19T00:26:32.367Z,22.94
2022-08-19T00:27:35.566Z,22.93
2022-08-19T00:28:38.173Z,22.90
2022-08-19T00:29:40.115Z,22.89
2022-08-19T00:30:42.861Z,22.88
2022-08-19T00:31:45.852Z,22.87
2022-08-19T00:32:48.827Z,22.86
2022-08-19T00:33:51.314Z,22.85
2022-08-19T00:34:54.252Z,22.84
2022-08-19T00:35:57.426Z,22.83
2022-08-19T00:37:00.540Z,22.83
2022-08-19T00:38:03.269Z,22.83
2022-08-19T00:39:05.047Z,22.83
2022-08-19T00:40:09.533Z,22.82
2022-08-19T00:41:13.374Z,22.82
2022-08-19T00:42:16.461Z,22.82
2022-08-19T00:43:20.933Z,22.81
2022-08-19T00:44:26.716Z,22.82
2022-08-19T00:45:32.649Z,22.81
2022-08-19T00:46:41.477Z,22.81
2022-08-19T00:47:43.594Z,22.81
2022-08-19T00:48:46.220Z,22.79
2022-08-19T00:49:52.461Z,22.81
2022-08-19T00:50:56.357Z,22.78
2022-08-19T00:52:05.128Z,22.77
2022-08-19T00:53:07.636Z,22.76
2022-08-19T00:54:11.082Z,22.76
2022-08-19T00:55:16.832Z,22.76
2022-08-19T00:56:19.740Z,22.74
2022-08-19T00:57:27.927Z,22.74
2022-08-19T00:58:34.239Z,22.72
2022-08-19T01:00:01.923Z,22.72
2022-08-19T01:01:02.508Z,22.71
2022-08-19T01:02:04.828Z,22.69
2022-08-19T01:03:09.707Z,22.68
2022-08-19T01:04:11.479Z,22.66
2022-08-19T01:05:19.368Z,22.66
2022-08-19T01:06:21.657Z,22.64
2022-08-19T01:07:25.821Z,22.63
2022-08-19T01:08:27.531Z,22.62
2022-08-19T01:09:30.571Z,22.62
2022-08-19T01:10:38.284Z,22.60
2022-08-19T01:11:45.699Z,22.57
2022-08-19T01:12:48.890Z,22.58
2022-08-19T01:13:53.728Z,22.57
2022-08-19T01:14:56.373Z,22.57
2022-08-19T01:16:02.237Z,22.58
2022-08-19T01:17:04.737Z,22.56
2022-08-19T01:18:11.568Z,22.55
2022-08-19T01:19:21.763Z,22.53
2022-08-19T01:20:25.853Z,22.54
2022-08-19T01:21:32.496Z,22.50
2022-08-19T01:22:39.708Z,22.51
2022-08-19T01:23:44.341Z,22.51
2022-08-19T01:24:49.624Z,22.50
2022-08-19T01:25:54.600Z,22.50
2022-08-19T01:26:57.553Z,22.50
2022-08-19T01:28:10.541Z,22.47
2022-08-19T01:29:14.775Z,22.48
2022-08-19T01:30:23.418Z,22.47
2022-08-19T01:31:30.312Z,22.47
2022-08-19T01:32:35.822Z,22.45
2022-08-19T01:33:37.508Z,22.45
2022-08-19T01:34:40.519Z,22.45
2022-08-19T01:35:42.626Z,22.43
2022-08-19T01:36:48.118Z,22.41
2022-08-19T01:37:53.734Z,22.43
2022-08-19T01:38:56.992Z,22.42
2022-08-19T01:39:58.758Z,22.41
2022-08-19T01:41:01.422Z,22.42
2022-08-19T01:42:13.327Z,22.42
2022-08-19T01:43:16.032Z,22.39
2022-08-19T01:44:21.258Z,22.38
2022-08-19T01:45:25.120Z,22.38
2022-08-19T01:46:29.395Z,22.37
2022-08-19T01:47:31.010Z,22.37
2022-08-19T01:48:39.401Z,22.36
2022-08-19T01:49:41.176Z,22.36
2022-08-19T01:50:44.508Z,22.33
2022-08-19T01:51:47.051Z,22.32
2022-08-19T01:52:49.937Z,22.32
2022-08-19T01:54:06.707Z,22.31
2022-08-19T01:55:12.207Z,22.31
2022-08-19T01:56:14.876Z,22.29
2022-08-19T01:57:16.840Z,22.29
2022-08-19T01:58:24.121Z,22.28
2022-08-19T01:59:25.859Z,22.28
2022-08-19T02:00:31.673Z,22.26
2022-08-19T02:01:33.558Z,22.25
2022-08-19T02:02:36.260Z,22.23
2022-08-19T02:03:37.936Z,22.21
2022-08-19T02:04:40.612Z,22.20
2022-08-19T02:05:43.203Z,22.18
2022-08-19T02:06:45.760Z,22.18
2022-08-19T02:07:47.485Z,22.17
2022-08-19T02:08:50.135Z,22.19
2022-08-19T02:09:55.823Z,22.16
2022-08-19T02:10:59.014Z,22.17
2022-08-19T02:12:00.867Z,22.16
2022-08-19T02:13:04.104Z,22.16
2022-08-19T02:14:07.889Z,22.16
2022-08-19T02:15:11.325Z,22.14
2022-08-19T02:16:12.903Z,22.14
2022-08-19T02:17:15.749Z,22.13
2022-08-19T02:18:17.883Z,22.11
2022-08-19T02:19:20.445Z,22.10
2022-08-19T02:20:23.396Z,22.09
2022-08-19T02:21:26.404Z,22.08
2022-08-19T02:22:28.265Z,22.07
2022-08-19T02:23:33.331Z,22.07
2022-08-19T02:24:35.027Z,22.05
2022-08-19T02:25:39.407Z,22.04
2022-08-19T02:26:41.095Z,22.03
2022-08-19T02:27:44.668Z,22.02
2022-08-19T02:28:46.991Z,21.99
2022-08-19T02:29:51.016Z,22.00
2022-08-19T02:30:52.926Z,21.98
2022-08-19T02:31:55.551Z,21.96
2022-08-19T02:32:57.553Z,21.96
2022-08-19T02:34:00.985Z,21.95
2022-08-19T02:35:04.327Z,21.93
2022-08-19T02:36:16.660Z,21.90
2022-08-19T02:37:41.313Z,21.90
2022-08-19T02:38:47.677Z,21.88
2022-08-19T02:39:57.294Z,21.87
2022-08-19T02:41:05.751Z,21.85
2022-08-19T02:42:08.750Z,21.83
2022-08-19T02:43:10.640Z,21.82
2022-08-19T02:44:29.882Z,21.82
2022-08-19T02:45:40.508Z,21.82
2022-08-19T02:46:45.646Z,21.81
2022-08-19T02:47:47.375Z,21.81
2022-08-19T02:48:50.434Z,21.81
2022-08-19T02:49:52.086Z,21.82
2022-08-19T02:50:56.693Z,21.82
2022-08-19T02:51:58.390Z,21.82
2022-08-19T02:53:01.086Z,21.82
2022-08-19T02:54:05.492Z,21.80
2022-08-19T02:55:08.361Z,21.81
2022-08-19T02:56:12.277Z,21.81
2022-08-19T02:57:14.063Z,21.80
2022-08-19T02:58:17.819Z,21.79
2022-08-19T02:59:22.952Z,21.79
2022-08-19T03:00:25.973Z,21.78
2022-08-19T03:01:31.297Z,21.78
2022-08-19T03:02:34.122Z,21.77
2022-08-19T03:03:35.704Z,21.76
2022-08-19T03:04:38.353Z,21.76
2022-08-19T03:05:48.263Z,21.76
2022-08-19T03:07:10.724Z,21.76
2022-08-19T03:08:22.873Z,21.77
2022-08-19T03:09:24.502Z,21.76
2022-08-19T03:10:27.183Z,21.76
2022-08-19T03:11:31.835Z,21.75
2022-08-19T03:12:38.110Z,21.76
2022-08-19T03:13:39.691Z,21.76
2022-08-19T03:14:42.324Z,21.75
2022-08-19T03:15:46.898Z,21.76
2022-08-19T03:16:53.691Z,21.74
2022-08-19T03:17:55.323Z,21.73
2022-08-19T03:19:01.021Z,21.71
2022-08-19T03:20:04.117Z,21.71
2022-08-19T03:21:12.520Z,21.69
2022-08-19T03:22:15.020Z,21.68
2022-08-19T03:23:18.758Z,21.68
2022-08-19T03:24:21.157Z,21.65
2022-08-19T03:25:23.818Z,21.63
2022-08-19T03:26:25.636Z,21.62
2022-08-19T03:27:34.890Z,21.60
2022-08-19T03:28:37.632Z,21.59
2022-08-19T03:29:43.352Z,21.57
2022-08-19T03:30:57.587Z,21.56
2022-08-19T03:32:01.447Z,21.56
2022-08-19T03:33:04.301Z,21.53
2022-08-19T03:34:08.212Z,21.52
2022-08-19T03:35:17.896Z,21.51
2022-08-19T03:36:24.851Z,21.52
2022-08-19T03:37:29.434Z,21.50
2022-08-19T03:38:33.086Z,21.52
2022-08-19T03:39:37.613Z,21.52
2022-08-19T03:40:43.860Z,21.52
2022-08-19T03:42:31.916Z,21.50
2022-08-19T03:43:15.859Z,21.49
2022-08-19T03:44:21.466Z,21.47
2022-08-19T03:45:24.110Z,21.45
2022-08-19T03:46:28.277Z,21.45
2022-08-19T03:47:31.361Z,21.43
2022-08-19T03:48:34.140Z,21.42
2022-08-19T03:49:37.469Z,21.41
2022-08-19T03:50:39.773Z,21.38
2022-08-19T03:51:43.940Z,21.38
2022-08-19T03:52:49.421Z,21.38
2022-08-19T03:53:52.909Z,21.37
2022-08-19T03:54:55.580Z,21.36
2022-08-19T03:55:58.897Z,21.34
2022-08-19T03:57:01.560Z,21.34
2022-08-19T03:58:03.195Z,21.32
2022-08-19T03:59:09.160Z,21.29
2022-08-19T04:00:13.805Z,21.27
2022-08-19T04:01:19.555Z,21.26
2022-08-19T04:02:22.358Z,21.26
2022-08-19T04:03:23.987Z,21.26
2022-08-19T04:04:29.270Z,21.24
2022-08-19T04:05:31.108Z,21.23
2022-08-19T04:06:36.005Z,21.22
2022-08-19T04:07:41.694Z,21.21
2022-08-19T04:08:46.355Z,21.20
2022-08-19T04:09:48.294Z,21.17
2022-08-19T04:10:51.409Z,21.17
2022-08-19T04:11:56.500Z,21.15
2022-08-19T04:12:59.418Z,21.17
2022-08-19T04:14:01.767Z,21.14
2022-08-19T04:15:09.516Z,21.14
2022-08-19T04:16:11.940Z,21.14
2022-08-19T04:17:14.970Z,21.14
2022-08-19T04:18:16.648Z,21.11
2022-08-19T04:19:20.699Z,21.12
2022-08-19T04:20:22.520Z,21.12
2022-08-19T04:21:27.345Z,21.11
2022-08-19T04:22:29.031Z,21.12
2022-08-19T04:23:32.082Z,21.11
2022-08-19T04:24:35.066Z,21.10
2022-08-19T04:25:39.522Z,21.11
2022-08-19T04:26:41.932Z,21.11
2022-08-19T04:27:47.191Z,21.09
2022-08-19T04:28:49.995Z,21.10
2022-08-19T04:29:53.383Z,21.09
2022-08-19T04:30:56.792Z,21.09
2022-08-19T04:32:00.475Z,21.09
2022-08-19T04:33:12.724Z,21.09
2022-08-19T04:34:18.450Z,21.09
2022-08-19T04:35:23.137Z,21.09
2022-08-19T04:36:29.826Z,21.08
2022-08-19T04:37:35.078Z,21.09
2022-08-19T04:38:38.204Z,21.08
2022-08-19T04:40:02.487Z,21.07
2022-08-19T04:41:23.966Z,21.09
2022-08-19T04:42:40.895Z,21.08
2022-08-19T04:43:47.354Z,21.09
2022-08-19T04:44:49.619Z,21.09
2022-08-19T04:45:56.935Z,21.09
2022-08-19T04:47:11.435Z,21.09
2022-08-19T04:48:27.163Z,21.08
2022-08-19T04:49:29.845Z,21.10
2022-08-19T04:50:32.473Z,21.09
2022-08-19T04:51:35.824Z,21.09
2022-08-19T04:52:43.538Z,21.09
2022-08-19T04:53:46.905Z,21.08
2022-08-19T04:54:49.052Z,21.08
2022-08-19T04:55:52.411Z,21.07
2022-08-19T04:56:54.543Z,21.07
2022-08-19T04:57:57.193Z,21.05
2022-08-19T04:59:03.974Z,21.05
2022-08-19T05:00:07.866Z,21.05
2022-08-19T05:01:12.835Z,21.04
2022-08-19T05:02:16.885Z,21.05
2022-08-19T05:03:19.076Z,21.04
2022-08-19T05:04:22.062Z,21.05
2022-08-19T05:05:26.371Z,21.05
2022-08-19T05:06:33.667Z,21.04
2022-08-19T05:07:36.060Z,21.04
2022-08-19T05:08:42.952Z,21.04
2022-08-19T05:09:57.955Z,21.05
2022-08-19T05:11:01.043Z,21.05
2022-08-19T05:12:05.068Z,21.06
2022-08-19T05:13:06.664Z,21.07
2022-08-19T05:14:10.755Z,21.08
2022-08-19T05:15:12.597Z,21.08
2022-08-19T05:16:16.883Z,21.09
2022-08-19T05:17:28.423Z,21.09
2022-08-19T05:18:49.360Z,21.11
2022-08-19T05:20:09.559Z,21.14
2022-08-19T05:21:31.550Z,21.16
2022-08-19T05:22:35.465Z,21.17
2022-08-19T05:23:38.119Z,21.17
2022-08-19T05:25:02.572Z,21.21
2022-08-19T05:26:05.306Z,21.22
2022-08-19T05:27:07.072Z,21.23
2022-08-19T05:28:09.625Z,21.23
2022-08-19T05:29:11.206Z,21.23
2022-08-19T05:30:14.678Z,21.25
2022-08-19T05:31:16.274Z,21.27
2022-08-19T05:32:18.918Z,21.28
2022-08-19T05:33:22.465Z,21.29
2022-08-19T05:34:27.035Z,21.33
2022-08-19T05:35:29.343Z,21.35
2022-08-19T05:36:40.845Z,21.36
2022-08-19T05:37:45.547Z,21.39
2022-08-19T05:38:48.390Z,21.42
2022-08-19T05:39:53.383Z,21.46
2022-08-19T05:40:55.371Z,21.49
2022-08-19T05:41:59.914Z,21.52
2022-08-19T05:43:01.625Z,21.54
2022-08-19T05:44:09.987Z,21.58
2022-08-19T05:45:12.865Z,21.61
2022-08-19T05:46:19.585Z,21.64
2022-08-19T05:47:30.283Z,21.68
2022-08-19T05:48:33.594Z,21.71
2022-08-19T05:49:37.738Z,21.75
2022-08-19T05:50:40.393Z,21.79
2022-08-19T05:51:43.904Z,21.84
2022-08-19T05:52:50.670Z,21.88
2022-08-19T05:53:53.907Z,21.93
2022-08-19T05:54:57.143Z,21.97
2022-08-19T05:55:59.032Z,22.02
2022-08-19T05:57:03.026Z,22.06
2022-08-19T05:58:04.856Z,22.09
2022-08-19T05:59:09.996Z,22.12
2022-08-19T06:00:13.256Z,22.11
2022-08-19T06:01:20.006Z,22.11
2022-08-19T06:02:21.887Z,22.13
2022-08-19T06:03:25.089Z,22.13
2022-08-19T06:04:28.143Z,22.14
2022-08-19T06:05:31.168Z,22.16
2022-08-19T06:06:35.065Z,22.17
2022-08-19T06:07:38.152Z,22.18
2022-08-19T06:08:40.667Z,22.19
2022-08-19T06:09:43.707Z,22.22
2022-08-19T06:11:15.116Z,22.22
2022-08-19T06:12:17.689Z,22.25
2022-08-19T06:13:20.982Z,22.28
2022-08-19T06:14:27.767Z,22.29
2022-08-19T06:15:30.148Z,22.29
2022-08-19T06:16:36.097Z,22.31
2022-08-19T06:17:39.195Z,22.29
2022-08-19T06:18:40.853Z,22.29
2022-08-19T06:19:44.821Z,22.29
2022-08-19T06:20:55.995Z,22.28
2022-08-19T06:22:00.932Z,22.26
2022-08-19T06:23:04.641Z,22.24
2022-08-19T06:24:08.623Z,22.25
2022-08-19T06:25:11.354Z,22.25
2022-08-19T06:26:14.338Z,22.28
2022-08-19T06:27:17.284Z,22.28
2022-08-19T06:28:19.202Z,22.29
2022-08-19T06:29:24.695Z,22.32
2022-08-19T06:30:26.477Z,22.35
2022-08-19T06:31:30.336Z,22.39
2022-08-19T06:32:32.633Z,22.48
2022-08-19T06:33:35.220Z,22.53
2022-08-19T06:34:38.121Z,22.58
2022-08-19T06:35:42.351Z,22.65
2022-08-19T06:36:47.786Z,22.70
2022-08-19T06:37:49.461Z,22.75
2022-08-19T06:38:52.070Z,22.83
2022-08-19T06:39:54.067Z,22.88
2022-08-19T06:41:02.603Z,22.90
2022-08-19T06:42:17.069Z,22.93
2022-08-19T06:43:19.411Z,22.95
2022-08-19T06:44:25.006Z,22.97
2022-08-19T06:45:34.793Z,22.99
2022-08-19T06:46:38.108Z,23.02
2022-08-19T06:47:44.762Z,23.05
2022-08-19T06:48:47.168Z,23.06
2022-08-19T06:49:49.745Z,23.06
2022-08-19T06:50:52.951Z,23.06
2022-08-19T06:51:57.685Z,23.04
2022-08-19T06:53:04.398Z,23.04
2022-08-19T06:54:07.433Z,23.04
2022-08-19T06:55:22.423Z,23.03
2022-08-19T06:56:31.953Z,23.03
2022-08-19T06:57:36.020Z,23.00
2022-08-19T06:58:37.642Z,23.01
2022-08-19T06:59:40.358Z,23.02
2022-08-19T07:00:42.012Z,23.01
2022-08-19T07:01:47.869Z,23.01
2022-08-19T07:02:56.169Z,22.98
2022-08-19T07:04:03.271Z,22.95
2022-08-19T07:05:07.683Z,22.93
2022-08-19T07:06:32.502Z,22.92
2022-08-19T07:07:36.608Z,22.90
2022-08-19T07:08:41.763Z,22.90
2022-08-19T07:09:52.174Z,22.89
2022-08-19T07:11:02.782Z,22.90
2022-08-19T07:12:14.371Z,22.90
2022-08-19T07:13:16.160Z,22.91
2022-08-19T07:14:21.204Z,22.93
2022-08-19T07:15:24.106Z,22.94
2022-08-19T07:16:29.364Z,22.95
2022-08-19T07:17:31.757Z,22.98
2022-08-19T07:18:38.288Z,23.01
2022-08-19T07:19:43.313Z,23.05
2022-08-19T07:20:45.716Z,23.08
2022-08-19T07:21:51.900Z,23.14
2022-08-19T07:22:54.157Z,23.15
2022-08-19T07:23:58.788Z,23.16
2022-08-19T07:25:01.381Z,23.17
2022-08-19T07:26:09.293Z,23.18
2022-08-19T07:27:13.826Z,23.18
2022-08-19T07:28:24.425Z,23.19
2022-08-19T07:29:29.077Z,23.22
2022-08-19T07:30:31.830Z,23.22
2022-08-19T07:31:37.715Z,23.24
2022-08-19T07:32:40.487Z,23.26
2022-08-19T07:33:43.892Z,23.28
2022-08-19T07:34:46.963Z,23.31
2022-08-19T07:35:48.560Z,23.33
2022-08-19T07:36:52.565Z,23.36
2022-08-19T07:37:54.399Z,23.39
2022-08-19T07:38:57.237Z,23.43
2022-08-19T07:39:59.860Z,23.47
2022-08-19T07:41:02.247Z,23.53
2022-08-19T07:42:09.772Z,23.58
2022-08-19T07:43:14.236Z,23.62
2022-08-19T07:44:22.008Z,23.63
2022-08-19T07:45:25.086Z,23.65
2022-08-19T07:46:31.998Z,23.67
2022-08-19T07:47:50.025Z,23.69
2022-08-19T07:48:54.061Z,23.72
2022-08-19T07:49:55.686Z,23.75
2022-08-19T07:51:02.716Z,23.82
2022-08-19T07:52:10.385Z,23.90
2022-08-19T07:53:13.276Z,23.98
2022-08-19T07:54:16.092Z,24.04
2022-08-19T07:55:41.446Z,24.13
2022-08-19T07:56:43.846Z,24.18
2022-08-19T07:57:45.649Z,24.23
2022-08-19T07:58:51.098Z,24.29
2022-08-19T07:59:52.781Z,24.31
2022-08-19T08:00:55.630Z,24.34
2022-08-19T08:02:00.479Z,24.33
2022-08-19T08:03:02.236Z,24.32
2022-08-19T08:04:22.682Z,24.30
2022-08-19T08:05:44.239Z,24.26
2022-08-19T08:07:14.438Z,24.21
2022-08-19T08:08:34.634Z,24.17
2022-08-19T08:09:41.127Z,24.11
2022-08-19T08:10:44.415Z,24.09
2022-08-19T08:12:02.004Z,24.06
2022-08-19T08:13:10.310Z,24.06
2022-08-19T08:14:29.504Z,24.08
2022-08-19T08:15:42.136Z,24.09
2022-08-19T08:16:46.992Z,24.10
2022-08-19T08:17:51.676Z,24.14
2022-08-19T08:18:53.479Z,24.15
2022-08-19T08:19:58.339Z,24.21
2022-08-19T08:21:00.051Z,24.27
2022-08-19T08:22:07.275Z,24.32
2022-08-19T08:23:25.904Z,24.36
2022-08-19T08:24:31.508Z,24.38
2022-08-19T08:25:42.034Z,24.40
2022-08-19T08:26:46.863Z,24.40
2022-08-19T08:27:53.883Z,24.40
2022-08-19T08:28:58.494Z,24.41
2022-08-19T08:30:03.036Z,24.41
2022-08-19T08:31:09.715Z,24.40
2022-08-19T08:32:14.202Z,24.41
2022-08-19T08:33:30.001Z,24.40
2022-08-19T08:34:37.920Z,24.38
2022-08-19T08:35:43.328Z,24.44
2022-08-19T08:36:47.063Z,24.51
2022-08-19T08:37:53.638Z,24.59
2022-08-19T08:40:00.086Z,24.75
2022-08-19T08:41:11.125Z,24.83
2022-08-19T08:42:21.596Z,24.92
2022-08-19T08:43:30.629Z,24.95
2022-08-19T08:44:51.545Z,24.95
2022-08-19T08:46:00.307Z,24.94
2022-08-19T08:47:07.893Z,24.95
2022-08-19T08:48:22.276Z,24.94
2022-08-19T08:49:35.411Z,24.95
2022-08-19T08:50:43.092Z,24.96
2022-08-19T08:51:59.374Z,25.00
2022-08-19T08:53:07.832Z,25.03
2022-08-19T08:54:13.859Z,25.04
2022-08-19T08:55:21.210Z,25.06
2022-08-19T08:56:24.831Z,25.07
2022-08-19T08:57:33.758Z,25.09
2022-08-19T08:58:59.024Z,25.04
2022-08-19T09:00:05.076Z,25.02
2022-08-19T09:01:12.229Z,25.02
2022-08-19T09:02:14.825Z,25.00
2022-08-19T09:03:21.763Z,25.02
2022-08-19T09:04:25.263Z,25.01
2022-08-19T09:05:42.112Z,25.03
2022-08-19T09:06:56.733Z,25.05
2022-08-19T09:08:06.833Z,25.12
2022-08-19T09:09:15.234Z,25.16
2022-08-19T09:10:32.600Z,25.22
2022-08-19T09:11:47.590Z,25.28
2022-08-19T09:13:01.389Z,25.34
2022-08-19T09:14:29.269Z,25.35
2022-08-19T09:15:40.328Z,25.35
2022-08-19T09:16:41.987Z,25.38
2022-08-19T09:17:45.544Z,25.43
2022-08-19T09:18:54.440Z,25.49
2022-08-19T09:19:59.437Z,25.53
2022-08-19T09:21:05.117Z,25.58
2022-08-19T09:22:08.527Z,25.62
2022-08-19T09:23:14.676Z,25.65
2022-08-19T09:24:16.275Z,25.67
2022-08-19T09:25:24.732Z,25.69
2022-08-19T09:26:47.360Z,25.67
2022-08-19T09:27:52.976Z,25.66
2022-08-19T09:28:55.728Z,25.67
2022-08-19T09:30:01.190Z,25.69
2022-08-19T09:31:03.054Z,25.70
2022-08-19T09:32:06.208Z,25.72
2022-08-19T09:33:28.881Z,25.69
2022-08-19T09:34:38.059Z,25.66
2022-08-19T09:35:50.194Z,25.62
2022-08-19T09:36:56.441Z,25.63
2022-08-19T09:38:00.607Z,25.65
2022-08-19T09:39:04.909Z,25.66
2022-08-19T09:40:20.246Z,25.67
2022-08-19T09:41:24.179Z,25.68
2022-08-19T09:42:30.490Z,25.69
2022-08-19T09:43:44.680Z,25.72
2022-08-19T09:44:50.579Z,25.77
2022-08-19T09:45:53.405Z,25.80
2022-08-19T09:46:57.010Z,25.83
2022-08-19T09:47:58.640Z,25.84
2022-08-19T09:49:07.102Z,25.86
2022-08-19T09:50:12.248Z,25.88
2022-08-19T09:51:24.203Z,25.89
2022-08-19T09:52:26.091Z,25.90
2022-08-19T09:53:35.624Z,25.93
2022-08-19T09:54:40.364Z,25.94
2022-08-19T09:55:46.881Z,25.92
2022-08-19T09:56:48.799Z,25.97
2022-08-19T09:57:51.567Z,25.97
2022-08-19T09:58:53.248Z,25.99
2022-08-19T09:59:56.085Z,26.02
2022-08-19T10:00:59.278Z,26.02
2022-08-19T10:02:03.695Z,26.03
2022-08-19T10:03:12.605Z,26.05
2022-08-19T10:04:20.414Z,26.05
2022-08-19T10:05:42.695Z,26.05
2022-08-19T10:06:46.718Z,26.02
2022-08-19T10:07:49.118Z,26.05
2022-08-19T10:08:53.015Z,26.09
2022-08-19T10:09:56.382Z,26.13
2022-08-19T10:10:59.363Z,26.19
2022-08-19T10:12:06.179Z,26.25
2022-08-19T10:13:08.911Z,26.30
2022-08-19T10:14:11.543Z,26.33
2022-08-19T10:15:13.890Z,26.33
2022-08-19T10:16:19.756Z,26.34
2022-08-19T10:17:26.412Z,26.36
2022-08-19T10:18:30.094Z,26.41
2022-08-19T10:19:36.757Z,26.42
2022-08-19T10:20:39.322Z,26.45
2022-08-19T10:21:41.299Z,26.44
2022-08-19T10:22:44.508Z,26.46
2022-08-19T10:23:49.690Z,26.46
2022-08-19T10:24:53.354Z,26.44
2022-08-19T10:26:00.762Z,26.44
2022-08-19T10:27:04.585Z,26.41
2022-08-19T10:28:10.552Z,26.41
2022-08-19T10:29:13.397Z,26.45
2022-08-19T10:30:34.001Z,26.48
2022-08-19T10:32:00.050Z,26.49
2022-08-19T10:32:59.206Z,26.50
2022-08-19T10:34:02.603Z,26.53
2022-08-19T10:35:08.834Z,26.54
2022-08-19T10:36:15.915Z,26.55
2022-08-19T10:37:23.725Z,26.56
2022-08-19T10:38:33.002Z,26.55
2022-08-19T10:39:43.595Z,26.56
2022-08-19T10:40:46.268Z,26.54
2022-08-19T10:41:49.308Z,26.53
2022-08-19T10:42:51.891Z,26.50
2022-08-19T10:43:55.472Z,26.46
2022-08-19T10:44:58.212Z,26.37
2022-08-19T10:46:00.115Z,26.33
2022-08-19T10:47:03.570Z,26.28
2022-08-19T10:48:05.371Z,26.25
2022-08-19T10:49:08.001Z,26.26
2022-08-19T10:50:28.985Z,26.27
2022-08-19T10:51:50.733Z,26.27
2022-08-19T10:52:52.349Z,26.27
2022-08-19T10:53:59.027Z,26.29
2022-08-19T10:55:19.134Z,26.27
2022-08-19T10:56:39.320Z,26.28
2022-08-19T10:59:05.865Z,26.27
2022-08-19T11:00:08.597Z,26.27
2022-08-19T11:01:15.970Z,26.31
2022-08-19T11:02:18.616Z,26.34
2022-08-19T11:03:20.255Z,26.34
2022-08-19T11:04:23.368Z,26.32
2022-08-19T11:05:31.397Z,26.31
2022-08-19T11:06:44.387Z,26.29
2022-08-19T11:07:46.483Z,26.29
2022-08-19T11:08:49.189Z,26.30
2022-08-19T11:09:55.812Z,26.31
2022-08-19T11:11:03.698Z,26.35
2022-08-19T11:12:06.941Z,26.40
2022-08-19T11:13:09.975Z,26.48
2022-08-19T11:14:15.852Z,26.56
2022-08-19T11:15:17.605Z,26.63
2022-08-19T11:16:22.722Z,26.68
2022-08-19T11:17:24.420Z,26.70
2022-08-19T11:18:27.354Z,26.74
2022-08-19T11:19:28.978Z,26.77
2022-08-19T11:20:32.319Z,26.82
2022-08-19T11:21:41.784Z,26.87
2022-08-19T11:22:43.672Z,26.91
2022-08-19T11:23:48.468Z,26.94
2022-08-19T11:24:50.236Z,26.92
2022-08-19T11:25:54.054Z,26.90
2022-08-19T11:27:03.504Z,26.87
2022-08-19T11:28:06.829Z,26.83
2022-08-19T11:29:12.376Z,26.83
2022-08-19T11:30:16.321Z,26.84
2022-08-19T11:31:20.842Z,26.87
2022-08-19T11:32:23.851Z,26.86
2022-08-19T11:33:27.225Z,26.89
2022-08-19T11:34:30.566Z,26.93
2022-08-19T11:35:33.856Z,26.93
2022-08-19T11:36:39.725Z,26.92
2022-08-19T11:37:41.629Z,26.90
2022-08-19T11:38:44.502Z,26.87
2022-08-19T11:39:51.357Z,26.85
2022-08-19T11:40:57.230Z,26.83
2022-08-19T11:42:00.928Z,26.82
2022-08-19T11:43:02.531Z,26.82
2022-08-19T11:44:05.719Z,26.84
2022-08-19T11:45:10.022Z,26.87
2022-08-19T11:46:16.244Z,26.88
2022-08-19T11:47:18.038Z,26.89
2022-08-19T11:48:23.294Z,26.90
2022-08-19T11:49:25.031Z,26.90
2022-08-19T11:50:27.645Z,26.91
2022-08-19T11:51:30.673Z,26.93
2022-08-19T11:52:33.251Z,26.96
2022-08-19T11:53:35.817Z,27.02
2022-08-19T11:54:38.519Z,27.07
2022-08-19T11:55:43.384Z,27.11
2022-08-19T11:56:48.655Z,27.13
2022-08-19T11:57:50.568Z,27.17
2022-08-19T11:58:54.150Z,27.20
2022-08-19T11:59:55.893Z,27.22
2022-08-19T12:01:00.247Z,27.23
2022-08-19T12:02:02.006Z,27.25
2022-08-19T12:03:04.832Z,27.28
2022-08-19T12:04:06.583Z,27.30
2022-08-19T12:05:12.631Z,27.31
2022-08-19T12:06:17.594Z,27.31
2022-08-19T12:07:20.228Z,27.31
2022-08-19T12:08:21.804Z,27.32
2022-08-19T12:09:24.375Z,27.32
2022-08-19T12:10:26.643Z,27.31
2022-08-19T12:11:29.313Z,27.31
2022-08-19T12:12:38.848Z,27.31
2022-08-19T12:13:45.184Z,27.33
2022-08-19T12:14:48.423Z,27.39
2022-08-19T12:15:50.834Z,27.42
2022-08-19T12:16:55.169Z,27.46
2022-08-19T12:17:58.016Z,27.46
2022-08-19T12:19:04.617Z,27.47
2022-08-19T12:20:07.794Z,27.45
2022-08-19T12:21:11.867Z,27.43
2022-08-19T12:22:13.509Z,27.37
2022-08-19T12:23:16.089Z,27.34
2022-08-19T12:24:23.786Z,27.27
2022-08-19T12:25:26.430Z,27.19
2022-08-19T12:26:29.603Z,27.15
2022-08-19T12:27:40.158Z,27.13
2022-08-19T12:28:44.650Z,27.12
2022-08-19T12:29:47.244Z,27.12
2022-08-19T12:30:50.957Z,27.15
2022-08-19T12:31:55.108Z,27.19
2022-08-19T12:32:56.696Z,27.21
2022-08-19T12:34:01.656Z,27.25
2022-08-19T12:35:07.667Z,27.26
2022-08-19T12:36:12.562Z,27.28
2022-08-19T12:37:15.649Z,27.31
2022-08-19T12:38:17.316Z,27.32
2022-08-19T12:39:19.963Z,27.34
2022-08-19T12:40:21.982Z,27.36
2022-08-19T12:41:24.933Z,27.42
2022-08-19T12:42:26.660Z,27.46
2022-08-19T12:43:31.234Z,27.46
2022-08-19T12:44:33.777Z,27.48
2022-08-19T12:45:37.136Z,27.51
2022-08-19T12:46:39.292Z,27.53
2022-08-19T12:47:45.380Z,27.54
2022-08-19T12:48:51.084Z,27.53
2022-08-19T12:49:57.400Z,27.52
2022-08-19T12:50:59.081Z,27.53
2022-08-19T12:52:02.292Z,27.53
2022-08-19T12:53:04.887Z,27.55
2022-08-19T12:54:07.455Z,27.56
2022-08-19T12:55:11.511Z,27.57
2022-08-19T12:56:15.246Z,27.56
2022-08-19T12:57:17.821Z,27.56
2022-08-19T12:58:19.493Z,27.56
2022-08-19T12:59:23.153Z,27.57
2022-08-19T13:00:24.779Z,27.58
2022-08-19T13:01:28.666Z,27.59
2022-08-19T13:02:38.586Z,27.58
2022-08-19T13:03:43.959Z,27.57
2022-08-19T13:04:45.591Z,27.56
2022-08-19T13:05:48.300Z,27.57
2022-08-19T13:06:51.283Z,27.59
2022-08-19T13:07:56.850Z,27.60
2022-08-19T13:08:59.859Z,27.61
2022-08-19T13:10:01.808Z,27.62
2022-08-19T13:11:11.828Z,27.62
2022-08-19T13:12:14.289Z,27.61
2022-08-19T13:13:17.175Z,27.60
2022-08-19T13:14:19.827Z,27.59
2022-08-19T13:15:24.381Z,27.57
2022-08-19T13:16:28.409Z,27.55
2022-08-19T13:17:31.119Z,27.55
2022-08-19T13:18:32.956Z,27.54
2022-08-19T13:19:38.543Z,27.57
2022-08-19T13:20:41.633Z,27.58
2022-08-19T13:21:45.015Z,27.59
2022-08-19T13:22:49.226Z,27.57
2022-08-19T13:23:52.734Z,27.59
2022-08-19T13:24:54.424Z,27.58
2022-08-19T13:26:00.868Z,27.56
2022-08-19T13:27:02.476Z,27.54
2022-08-19T13:28:07.319Z,27.55
2022-08-19T13:29:36.113Z,27.54
2022-08-19T13:30:57.053Z,27.47
2022-08-19T13:32:18.540Z,27.40
2022-08-19T13:33:21.586Z,27.34
2022-08-19T13:34:30.757Z,27.31
2022-08-19T13:35:35.258Z,27.31
2022-08-19T13:36:37.820Z,27.31
2022-08-19T13:37:45.250Z,27.35
2022-08-19T13:38:47.923Z,27.39
2022-08-19T13:39:50.875Z,27.44
2022-08-19T13:40:56.115Z,27.46
2022-08-19T13:41:58.321Z,27.47
2022-08-19T13:43:02.509Z,27.49
2022-08-19T13:44:20.091Z,27.48
2022-08-19T13:45:26.035Z,27.52
2022-08-19T13:46:28.213Z,27.55
2022-08-19T13:47:30.945Z,27.57
2022-08-19T13:48:33.547Z,27.59
2022-08-19T13:49:37.078Z,27.62
2022-08-19T13:50:44.148Z,27.62
2022-08-19T13:51:47.284Z,27.61
2022-08-19T13:52:50.403Z,27.59
2022-08-19T13:53:52.420Z,27.60
2022-08-19T13:54:55.228Z,27.58
2022-08-19T13:55:58.300Z,27.56
2022-08-19T13:56:59.960Z,27.55
2022-08-19T13:58:03.692Z,27.56
2022-08-19T13:59:05.345Z,27.57
2022-08-19T14:00:11.113Z,27.61
2022-08-19T14:01:21.398Z,27.62
2022-08-19T14:02:27.277Z,27.66
2022-08-19T14:03:29.995Z,27.71
2022-08-19T14:04:31.625Z,27.75